Raleigh Durham International Airport
KRDU : rendu visible

Aérodrome :











RETROUVEZ-NOUS SUR...

 
LOGIN :

S'inscrire | Disclaimer

   EN    FR    IT 

 









Légende :    VFR   VFR Marginal   IFR   IFR Intensif   IFR Très Intensif
Visi : 
Plafond : 
>= 8 km
>= 3000ft
5 à 8 km
1000 à 3000 ft
1500m à 5 km
500 à 1000 ft
800 à 1500m
200 à 500 ft
< 800m
< 200 ft
Symboles :   Orages  Brouillard  Fortes neiges  Fortes précipitations  Vent > 20 kt






- Altitude de l'aérodrome : 435 ft
- Code IATA : RDU


KRDU - Raleigh Durham International

DERNIER METAR :
  • 191451Z 02005KT 10SM BKN010 OVC250 09/06 A2986 RMK AO2 SLP111 T00890061 55001

METARs EXPIRÉS :
  • 191431Z VRB03KT 10SM BKN010 OVC250 09/06 A2986 RMK AO2 T00890061
  • 191359Z 01004KT 8SM OVC009 08/07 A2986 RMK AO2 T00830067
  • 191351Z 32003KT 2SM OVC009 08/06 A2986 RMK AO2 SFC VIS 8 SLP110 T00830061
  • 191251Z 00000KT 2SM OVC007 08/07 A2985 RMK AO2 SFC VIS 7 SLP109 T00780067

TAF KRDU
Valide du 19 à 15h jusqu'au 20 à 12h UTC


191448Z 1915/2012 VRB03KT P6SM BKN010 OVC250
FM191700 VRB03KT P6SM BKN020 BKN120
FM191900 VRB03KT P6SM BKN035 BKN120
FM200400 VRB03KT 5SM BR BKN050 BKN100
FM200800 VRB03KT 2SM BR SCT050 SCT100



MET'MAP, la Météo Aéronautique d'un coup d'oeil ! - Copyright ORBIFLY Décembre 2007 - Disclaimer

ORBIFLY MET'MAP TEAM :

Programmation & Développement : Alexandra Zaïnal
Conception & Développement : Baudouin d'Aumeries
Co-Programmation & Développement : Marc-Olivier Méhu
Soutien technique & logistique : Manuel Goepfert

Contact : metmap@orbifly.com




SOURCES & CREDITS :

   NOAA       Earth
Advisory